createdAt,value
2022-10-17T00:00:56.696Z,4.18
2022-10-17T00:03:23.554Z,3.90
2022-10-17T00:05:51.095Z,3.70
2022-10-17T00:08:18.611Z,4.38
2022-10-17T00:10:45.931Z,4.55
2022-10-17T00:13:13.062Z,3.60
2022-10-17T00:15:44.559Z,4.53
2022-10-17T00:18:11.439Z,5.03
2022-10-17T00:20:38.291Z,4.47
2022-10-17T00:23:05.215Z,4.53
2022-10-17T00:25:32.150Z,4.15
2022-10-17T00:27:59.226Z,4.20
2022-10-17T00:30:26.118Z,4.55
2022-10-17T00:32:53.067Z,4.20
2022-10-17T00:35:20.110Z,4.40
2022-10-17T00:37:48.410Z,4.00
2022-10-17T00:40:15.377Z,4.05
2022-10-17T00:42:42.216Z,4.70
2022-10-17T00:45:21.294Z,3.97
2022-10-17T00:48:04.059Z,4.07
2022-10-17T00:50:32.124Z,3.75
2022-10-17T00:53:02.808Z,3.30
2022-10-17T00:55:33.571Z,4.22
2022-10-17T00:58:04.085Z,4.25
2022-10-17T01:00:31.245Z,3.90
2022-10-17T01:02:58.527Z,3.92
2022-10-17T01:05:25.821Z,4.53
2022-10-17T01:07:54.287Z,3.85
2022-10-17T01:13:13.828Z,3.67
2022-10-17T01:15:50.462Z,3.38
2022-10-17T01:21:06.602Z,4.10
2022-10-17T01:23:36.327Z,4.05
2022-10-17T01:26:06.346Z,4.13
2022-10-17T01:29:15.196Z,4.28
2022-10-17T01:32:03.088Z,4.13
2022-10-17T01:34:47.040Z,4.15
2022-10-17T01:37:36.111Z,4.03
2022-10-17T01:40:28.291Z,4.10
2022-10-17T01:43:28.271Z,3.50
2022-10-17T01:46:02.882Z,4.05
2022-10-17T01:48:37.081Z,3.95
2022-10-17T01:51:13.305Z,3.58
2022-10-17T01:53:49.312Z,4.22
2022-10-17T01:56:18.558Z,4.28
2022-10-17T01:58:57.444Z,4.78
2022-10-17T02:01:26.981Z,3.83
2022-10-17T02:03:56.589Z,3.90
2022-10-17T02:06:23.601Z,4.15
2022-10-17T02:08:51.461Z,4.93
2022-10-17T02:11:23.103Z,4.53
2022-10-17T02:14:23.939Z,4.07
2022-10-17T02:17:14.204Z,4.78
2022-10-17T02:20:06.494Z,4.32
2022-10-17T02:22:52.031Z,4.60
2022-10-17T02:25:28.184Z,3.92
2022-10-17T02:28:19.733Z,3.85
2022-10-17T02:30:46.639Z,3.75
2022-10-17T02:33:42.061Z,3.78
2022-10-17T02:36:15.351Z,3.80
2022-10-17T02:38:45.697Z,3.88
2022-10-17T02:41:18.139Z,3.78
2022-10-17T02:43:49.042Z,4.00
2022-10-17T02:46:23.184Z,3.70
2022-10-17T02:49:16.698Z,4.28
2022-10-17T02:51:56.279Z,4.28
2022-10-17T02:54:29.489Z,3.83
2022-10-17T02:57:25.522Z,4.00
2022-10-17T02:59:53.130Z,3.58
2022-10-17T03:02:20.150Z,3.47
2022-10-17T03:04:47.440Z,3.97
2022-10-17T03:07:15.972Z,3.90
2022-10-17T03:09:43.814Z,3.33
2022-10-17T03:12:10.630Z,3.65
2022-10-17T03:14:37.633Z,4.03
2022-10-17T03:17:04.705Z,4.07
2022-10-17T03:19:32.224Z,4.03
2022-10-17T03:21:59.112Z,3.60
2022-10-17T03:24:26.017Z,3.67
2022-10-17T03:26:53.330Z,3.75
2022-10-17T03:29:20.316Z,3.97
2022-10-17T03:31:47.557Z,3.25
2022-10-17T03:34:16.921Z,4.13
2022-10-17T03:36:43.847Z,3.88
2022-10-17T03:39:11.028Z,3.70
2022-10-17T03:41:38.185Z,3.47
2022-10-17T03:44:05.461Z,3.72
2022-10-17T03:46:33.694Z,3.60
2022-10-17T03:49:01.269Z,3.70
2022-10-17T03:51:28.435Z,3.50
2022-10-17T03:54:02.169Z,3.38
2022-10-17T03:56:29.211Z,3.17
2022-10-17T03:59:05.310Z,3.28
2022-10-17T04:01:35.319Z,3.17
2022-10-17T04:04:02.239Z,3.25
2022-10-17T04:06:32.615Z,2.88
2022-10-17T04:09:00.560Z,4.57
2022-10-17T04:11:34.892Z,3.30
2022-10-17T04:14:03.384Z,2.78
2022-10-17T04:16:30.545Z,2.80
2022-10-17T04:19:01.600Z,3.03
2022-10-17T04:21:33.887Z,2.78
2022-10-17T04:24:06.556Z,3.00
2022-10-17T04:26:54.905Z,3.53
2022-10-17T04:29:25.496Z,2.92
2022-10-17T04:31:56.471Z,2.97
2022-10-17T04:34:42.551Z,2.75
2022-10-17T04:37:09.445Z,3.33
2022-10-17T04:39:37.189Z,2.72
2022-10-17T04:42:04.130Z,2.70
2022-10-17T04:44:31.592Z,2.95
2022-10-17T04:46:58.906Z,2.88
2022-10-17T04:49:26.597Z,2.63
2022-10-17T04:51:57.989Z,2.97
2022-10-17T04:54:33.367Z,2.75
2022-10-17T04:57:07.122Z,2.65
2022-10-17T04:59:34.380Z,2.90
2022-10-17T05:02:24.211Z,3.40
2022-10-17T05:04:51.965Z,3.58
2022-10-17T05:07:20.476Z,3.00
2022-10-17T05:09:58.969Z,2.90
2022-10-17T05:12:26.860Z,2.80
2022-10-17T05:14:54.534Z,2.70
2022-10-17T05:17:25.434Z,3.13
2022-10-17T05:19:52.395Z,3.05
2022-10-17T05:22:19.362Z,2.88
2022-10-17T05:24:46.898Z,3.10
2022-10-17T05:27:14.051Z,2.63
2022-10-17T05:29:41.068Z,2.78
2022-10-17T05:32:20.355Z,3.05
2022-10-17T05:34:48.202Z,3.13
2022-10-17T05:37:15.485Z,3.10
2022-10-17T05:39:50.673Z,4.13
2022-10-17T05:42:19.645Z,2.75
2022-10-17T05:44:47.619Z,2.75
2022-10-17T05:47:17.479Z,3.17
2022-10-17T05:49:48.566Z,2.85
2022-10-17T05:52:20.530Z,3.17
2022-10-17T05:55:07.722Z,2.92
2022-10-17T05:57:34.717Z,2.85
2022-10-17T06:00:05.185Z,2.63
2022-10-17T06:02:41.299Z,2.85
2022-10-17T06:05:09.771Z,3.13
2022-10-17T06:07:37.150Z,2.60
2022-10-17T06:10:06.461Z,2.78
2022-10-17T06:12:33.478Z,2.60
2022-10-17T06:15:00.498Z,3.20
2022-10-17T06:17:28.270Z,2.83
2022-10-17T06:19:55.232Z,2.90
2022-10-17T06:22:23.967Z,3.00
2022-10-17T06:24:52.654Z,2.40
2022-10-17T06:27:20.477Z,2.30
2022-10-17T06:29:48.358Z,2.28
2022-10-17T06:32:15.459Z,2.90
2022-10-17T06:34:45.911Z,2.75
2022-10-17T06:37:12.948Z,2.42
2022-10-17T06:39:41.469Z,2.53
2022-10-17T06:42:13.026Z,2.85
2022-10-17T06:44:49.453Z,3.08
2022-10-17T06:47:37.375Z,2.35
2022-10-17T06:50:15.955Z,2.67
2022-10-17T06:52:51.870Z,2.10
2022-10-17T06:55:38.935Z,2.17
2022-10-17T06:58:17.260Z,2.50
2022-10-17T07:01:22.878Z,2.38
2022-10-17T07:03:56.880Z,2.70
2022-10-17T07:06:24.843Z,2.38
2022-10-17T07:08:55.790Z,2.20
2022-10-17T07:11:23.383Z,1.98
2022-10-17T07:13:52.573Z,2.17
2022-10-17T07:16:21.425Z,1.98
2022-10-17T07:18:54.378Z,2.03
2022-10-17T07:21:21.739Z,1.77
2022-10-17T07:23:48.805Z,2.38
2022-10-17T07:26:17.943Z,2.45
2022-10-17T07:28:46.713Z,2.50
2022-10-17T07:31:45.621Z,2.47
2022-10-17T07:34:12.972Z,2.20
2022-10-17T07:36:40.601Z,2.13
2022-10-17T07:39:08.509Z,2.10
2022-10-17T07:41:37.877Z,2.05
2022-10-17T07:44:05.111Z,1.75
2022-10-17T07:46:36.750Z,1.92
2022-10-17T07:49:03.781Z,2.20
2022-10-17T07:51:30.705Z,2.17
2022-10-17T07:53:57.844Z,1.90
2022-10-17T07:56:24.950Z,1.77
2022-10-17T07:58:53.207Z,1.75
2022-10-17T08:01:20.214Z,2.10
2022-10-17T08:03:51.088Z,1.85
2022-10-17T08:06:18.394Z,1.90
2022-10-17T08:08:45.475Z,2.00
2022-10-17T08:11:14.643Z,1.92
2022-10-17T08:13:42.462Z,2.00
2022-10-17T08:16:12.767Z,1.63
2022-10-17T08:18:41.371Z,2.15
2022-10-17T08:21:10.158Z,1.77
2022-10-17T08:23:37.848Z,1.73
2022-10-17T08:26:08.282Z,2.10
2022-10-17T08:28:37.015Z,1.73
2022-10-17T08:31:09.578Z,2.17
2022-10-17T08:33:36.989Z,2.00
2022-10-17T08:36:05.549Z,2.03
2022-10-17T08:38:35.678Z,1.90
2022-10-17T08:41:31.793Z,2.00
2022-10-17T08:44:32.564Z,1.70
2022-10-17T08:47:04.116Z,2.83
2022-10-17T08:49:52.587Z,2.22
2022-10-17T08:52:29.947Z,1.70
2022-10-17T08:54:56.987Z,1.83
2022-10-17T08:57:23.853Z,1.88
2022-10-17T08:59:53.558Z,1.90
2022-10-17T09:02:38.809Z,1.73
2022-10-17T09:05:24.022Z,1.50
2022-10-17T09:08:23.456Z,1.80
2022-10-17T09:10:56.309Z,2.00
2022-10-17T09:14:01.915Z,1.42
2022-10-17T09:16:34.631Z,1.60
2022-10-17T09:19:11.139Z,1.67
2022-10-17T09:21:46.911Z,1.48
2022-10-17T09:24:20.734Z,2.20
2022-10-17T09:26:47.690Z,1.60
2022-10-17T09:29:23.549Z,2.08
2022-10-17T09:31:59.460Z,1.58
2022-10-17T09:34:28.635Z,1.85
2022-10-17T09:36:58.680Z,2.08
2022-10-17T09:39:27.008Z,1.52
2022-10-17T09:41:59.178Z,2.17
2022-10-17T09:44:39.639Z,1.67
2022-10-17T09:47:31.411Z,1.50
2022-10-17T09:49:58.278Z,1.48
2022-10-17T09:52:33.891Z,1.60
2022-10-17T09:55:34.146Z,1.40
2022-10-17T09:58:03.409Z,2.17
2022-10-17T10:00:35.342Z,1.60
2022-10-17T10:03:14.520Z,1.52
2022-10-17T10:05:42.525Z,1.50
2022-10-17T10:08:17.483Z,1.55
2022-10-17T10:10:45.241Z,2.10
2022-10-17T10:13:15.037Z,1.75
2022-10-17T10:15:44.167Z,1.67
2022-10-17T10:18:26.490Z,1.67
2022-10-17T10:21:31.545Z,2.08
2022-10-17T10:24:10.578Z,1.67
2022-10-17T10:26:42.853Z,1.70
2022-10-17T10:29:40.144Z,1.48
2022-10-17T10:35:03.733Z,1.40
2022-10-17T10:37:43.629Z,1.63
2022-10-17T10:40:19.617Z,1.60
2022-10-17T10:42:50.365Z,1.20
2022-10-17T10:45:43.255Z,1.63
2022-10-17T10:48:34.385Z,1.70
2022-10-17T10:51:11.676Z,1.83
2022-10-17T10:53:48.676Z,1.50
2022-10-17T10:56:24.280Z,2.13
2022-10-17T10:59:04.834Z,1.33
2022-10-17T11:01:41.471Z,1.60
2022-10-17T11:04:29.476Z,1.77
2022-10-17T11:07:22.625Z,1.60
2022-10-17T11:10:39.449Z,2.10
2022-10-17T11:13:13.999Z,1.55
2022-10-17T11:15:47.362Z,1.38
2022-10-17T11:18:49.375Z,1.42
2022-10-17T11:21:22.718Z,1.92
2022-10-17T11:24:12.512Z,1.65
2022-10-17T11:26:46.573Z,2.00
2022-10-17T11:29:13.910Z,2.53
2022-10-17T11:31:50.572Z,1.38
2022-10-17T11:34:25.135Z,1.60
2022-10-17T11:39:42.194Z,1.75
2022-10-17T11:42:18.436Z,1.90
2022-10-17T11:44:45.682Z,1.67
2022-10-17T11:47:47.082Z,2.15
2022-10-17T11:53:15.088Z,1.75
2022-10-17T11:55:43.671Z,1.50
2022-10-17T11:58:13.114Z,1.60
2022-10-17T12:01:08.331Z,2.65
2022-10-17T12:03:59.940Z,2.05
2022-10-17T12:06:54.486Z,1.80
2022-10-17T12:09:46.243Z,2.15
2022-10-17T12:12:26.220Z,1.60
2022-10-17T12:14:53.701Z,2.13
2022-10-17T12:17:39.033Z,1.80
2022-10-17T12:20:21.548Z,2.03
2022-10-17T12:22:54.100Z,1.77
2022-10-17T12:25:30.006Z,1.70
2022-10-17T12:28:32.464Z,1.98
2022-10-17T12:30:59.510Z,2.10
2022-10-17T12:33:34.062Z,1.90
2022-10-17T12:36:19.048Z,2.33
2022-10-17T12:41:37.394Z,1.95
2022-10-17T12:44:13.385Z,1.52
2022-10-17T12:46:51.308Z,1.80
2022-10-17T12:49:21.453Z,2.03
2022-10-17T12:52:25.522Z,1.30
2022-10-17T12:55:11.643Z,1.90
2022-10-17T12:58:03.681Z,2.17
2022-10-17T13:01:22.404Z,1.63
2022-10-17T13:03:46.891Z,1.38
2022-10-17T13:06:40.405Z,1.67
2022-10-17T13:09:25.031Z,1.65
2022-10-17T13:11:54.009Z,1.58
2022-10-17T13:14:22.967Z,1.70
2022-10-17T13:16:56.171Z,1.70
2022-10-17T13:19:51.523Z,1.80
2022-10-17T13:24:48.735Z,1.90
2022-10-17T13:27:23.272Z,1.42
2022-10-17T13:32:17.028Z,1.60
2022-10-17T13:34:43.995Z,1.80
2022-10-17T13:37:14.837Z,1.90
2022-10-17T13:39:55.379Z,1.85
2022-10-17T13:42:27.967Z,1.83
2022-10-17T13:44:56.239Z,2.30
2022-10-17T13:47:27.367Z,1.65
2022-10-17T13:49:55.623Z,1.58
2022-10-17T13:52:27.343Z,1.70
2022-10-17T13:54:55.045Z,1.80
2022-10-17T13:57:24.059Z,1.85
2022-10-17T13:59:55.223Z,1.88
2022-10-17T14:02:28.162Z,1.85
2022-10-17T14:05:17.607Z,1.52
2022-10-17T14:08:15.253Z,1.60
2022-10-17T14:10:44.814Z,2.33
2022-10-17T14:13:23.984Z,1.65
2022-10-17T14:15:52.938Z,2.25
2022-10-17T14:18:34.930Z,2.10
2022-10-17T14:23:53.327Z,3.00
2022-10-17T14:26:24.130Z,1.83
2022-10-17T14:29:07.058Z,2.20
2022-10-17T14:31:36.023Z,1.83
2022-10-17T14:34:05.427Z,2.30
2022-10-17T14:36:36.176Z,2.08
2022-10-17T14:39:07.034Z,2.10
2022-10-17T14:41:43.599Z,2.00
2022-10-17T14:44:22.290Z,2.20
2022-10-17T14:46:54.153Z,2.20
2022-10-17T14:49:37.330Z,2.25
2022-10-17T14:52:18.648Z,2.47
2022-10-17T14:54:48.360Z,2.30
2022-10-17T14:57:18.613Z,1.90
2022-10-17T14:59:54.560Z,3.03
2022-10-17T15:02:22.380Z,2.70
2022-10-17T15:04:49.256Z,2.50
2022-10-17T15:07:17.760Z,2.72
2022-10-17T15:09:47.235Z,2.88
2022-10-17T15:12:17.191Z,2.33
2022-10-17T15:14:44.835Z,2.67
2022-10-17T15:17:19.036Z,3.08
2022-10-17T15:19:46.075Z,2.65
2022-10-17T15:22:13.103Z,3.10
2022-10-17T15:24:40.093Z,3.10
2022-10-17T15:27:19.110Z,2.75
2022-10-17T15:29:46.532Z,3.00
2022-10-17T15:32:14.094Z,3.10
2022-10-17T15:34:41.528Z,2.88
2022-10-17T15:37:17.678Z,3.28
2022-10-17T15:39:45.915Z,2.70
2022-10-17T15:42:12.915Z,2.95
2022-10-17T15:44:43.907Z,3.33
2022-10-17T15:47:34.961Z,2.75
2022-10-17T15:50:02.492Z,3.00
2022-10-17T15:52:29.758Z,3.33
2022-10-17T15:54:58.500Z,3.35
2022-10-17T15:57:31.861Z,3.33
2022-10-17T16:00:00.255Z,3.28
2022-10-17T16:02:27.850Z,3.30
2022-10-17T16:04:54.824Z,3.10
2022-10-17T16:07:22.003Z,3.53
2022-10-17T16:09:48.958Z,3.53
2022-10-17T16:12:19.193Z,4.20
2022-10-17T16:14:46.067Z,4.10
2022-10-17T16:17:16.934Z,4.13
2022-10-17T16:19:44.256Z,3.88
2022-10-17T16:22:24.869Z,5.05
2022-10-17T16:24:58.354Z,4.00
2022-10-17T16:27:26.490Z,3.40
2022-10-17T16:29:53.426Z,3.70
2022-10-17T16:32:20.306Z,3.60
2022-10-17T16:34:47.172Z,3.80
2022-10-17T16:37:16.626Z,4.00
2022-10-17T16:39:43.531Z,3.85
2022-10-17T16:42:10.370Z,4.22
2022-10-17T16:44:37.299Z,4.25
2022-10-17T16:47:04.206Z,4.55
2022-10-17T16:49:31.026Z,3.75
2022-10-17T16:51:58.127Z,4.10
2022-10-17T16:54:25.029Z,3.80
2022-10-17T16:56:51.960Z,4.38
2022-10-17T16:59:18.820Z,5.65
2022-10-17T17:01:45.701Z,4.40
2022-10-17T17:04:12.595Z,4.80
2022-10-17T17:06:39.691Z,4.25
2022-10-17T17:09:08.773Z,4.10
2022-10-17T17:11:37.530Z,4.13
2022-10-17T17:14:05.890Z,4.80
2022-10-17T17:16:35.211Z,4.80
2022-10-17T17:19:07.694Z,4.53
2022-10-17T17:21:35.143Z,3.90
2022-10-17T17:24:03.928Z,5.43
2022-10-17T17:26:36.180Z,3.78
2022-10-17T17:29:04.895Z,5.38
2022-10-17T17:31:34.190Z,3.80
2022-10-17T17:34:02.226Z,3.80
2022-10-17T17:36:31.985Z,5.53
2022-10-17T17:39:01.156Z,4.22
2022-10-17T17:41:28.866Z,4.72
2022-10-17T17:43:56.299Z,3.83
2022-10-17T17:46:24.812Z,4.05
2022-10-17T17:48:52.857Z,4.10
2022-10-17T17:51:26.943Z,4.03
2022-10-17T17:53:56.709Z,4.10
2022-10-17T17:56:29.695Z,4.88
2022-10-17T17:59:02.266Z,3.95
2022-10-17T18:01:38.846Z,4.80
2022-10-17T18:04:08.923Z,4.60
2022-10-17T18:06:37.514Z,4.63
2022-10-17T18:09:05.968Z,3.92
2022-10-17T18:11:33.377Z,4.10
2022-10-17T18:14:04.056Z,3.78
2022-10-17T18:16:32.460Z,4.43
2022-10-17T18:19:04.137Z,4.10
2022-10-17T18:21:34.661Z,4.77
2022-10-17T18:24:02.091Z,4.50
2022-10-17T18:26:28.961Z,4.80
2022-10-17T18:28:56.676Z,5.00
2022-10-17T18:31:28.402Z,4.57
2022-10-17T18:33:58.015Z,5.65
2022-10-17T18:36:28.714Z,4.82
2022-10-17T18:38:56.616Z,5.55
2022-10-17T18:41:25.882Z,4.85
2022-10-17T18:43:54.515Z,4.63
2022-10-17T18:46:26.838Z,5.45
2022-10-17T18:48:54.203Z,4.95
2022-10-17T18:51:24.040Z,6.85
2022-10-17T18:53:53.282Z,5.13
2022-10-17T18:56:21.562Z,3.85
2022-10-17T18:58:48.518Z,4.57
2022-10-17T19:01:18.452Z,4.82
2022-10-17T19:03:49.875Z,4.43
2022-10-17T19:06:19.977Z,4.88
2022-10-17T19:08:47.746Z,4.95
2022-10-17T19:11:20.954Z,5.57
2022-10-17T19:13:48.662Z,5.80
2022-10-17T19:16:21.165Z,5.93
2022-10-17T19:18:56.525Z,6.03
2022-10-17T19:23:52.995Z,5.60
2022-10-17T19:26:21.537Z,6.18
2022-10-17T19:28:48.569Z,6.15
2022-10-17T19:31:17.972Z,5.63
2022-10-17T19:33:45.359Z,6.43
2022-10-17T19:36:13.472Z,5.45
2022-10-17T19:38:40.372Z,6.47
2022-10-17T19:41:09.897Z,5.68
2022-10-17T19:43:37.965Z,5.65
2022-10-17T19:46:07.515Z,5.93
2022-10-17T19:48:39.373Z,5.57
2022-10-17T19:51:08.533Z,5.43
2022-10-17T19:53:35.658Z,5.47
2022-10-17T19:56:03.407Z,5.15
2022-10-17T19:58:30.931Z,6.35
2022-10-17T20:01:01.279Z,5.50
2022-10-17T20:03:29.390Z,5.28
2022-10-17T20:05:56.455Z,5.53
2022-10-17T20:08:23.584Z,5.18
2022-10-17T20:10:50.499Z,5.60
2022-10-17T20:13:17.473Z,5.65
2022-10-17T20:15:54.577Z,4.20
2022-10-17T20:18:21.771Z,4.90
2022-10-17T20:20:49.142Z,4.60
2022-10-17T20:23:16.160Z,4.90
2022-10-17T20:25:43.248Z,5.55
2022-10-17T20:28:10.417Z,5.45
2022-10-17T20:30:37.869Z,5.90
2022-10-17T20:33:04.848Z,5.38
2022-10-17T20:35:31.789Z,5.85
2022-10-17T20:37:58.732Z,8.00
2022-10-17T20:40:40.986Z,6.95
2022-10-17T20:43:10.023Z,6.30
2022-10-17T20:45:51.582Z,7.13
2022-10-17T20:48:19.217Z,6.25
2022-10-17T20:50:46.103Z,7.50
2022-10-17T20:56:05.780Z,7.68
2022-10-17T20:58:32.854Z,6.60
2022-10-17T21:01:05.471Z,6.70
2022-10-17T21:03:37.805Z,6.72
2022-10-17T21:06:09.134Z,6.60
2022-10-17T21:08:36.151Z,6.22
2022-10-17T21:11:14.553Z,6.50
2022-10-17T21:13:42.256Z,6.35
2022-10-17T21:16:11.806Z,6.35
2022-10-17T21:18:39.293Z,6.13
2022-10-17T21:21:16.723Z,6.03
2022-10-17T21:23:45.529Z,5.88
2022-10-17T21:26:13.018Z,7.32
2022-10-17T21:28:41.097Z,5.85
2022-10-17T21:31:16.907Z,5.70
2022-10-17T21:33:48.558Z,6.25
2022-10-17T21:36:16.995Z,5.45
2022-10-17T21:38:48.384Z,7.80
2022-10-17T21:41:17.370Z,5.97
2022-10-17T21:43:44.262Z,6.60
2022-10-17T21:46:18.910Z,6.13
2022-10-17T21:48:47.335Z,5.15
2022-10-17T21:51:16.578Z,5.50
2022-10-17T21:53:43.891Z,5.70
2022-10-17T21:56:14.274Z,5.88
2022-10-17T21:58:41.901Z,5.55
2022-10-17T22:01:16.364Z,4.93
2022-10-17T22:03:46.921Z,5.40
2022-10-17T22:09:05.874Z,5.68
2022-10-17T22:11:35.363Z,5.07
2022-10-17T22:14:05.125Z,5.45
2022-10-17T22:16:32.661Z,5.53
2022-10-17T22:19:04.830Z,5.65
2022-10-17T22:21:34.553Z,5.03
2022-10-17T22:24:04.470Z,4.22
2022-10-17T22:26:32.949Z,4.68
2022-10-17T22:29:00.402Z,4.40
2022-10-17T22:31:27.438Z,5.05
2022-10-17T22:33:54.368Z,5.47
2022-10-17T22:36:21.376Z,6.15
2022-10-17T22:38:48.557Z,5.18
2022-10-17T22:41:15.406Z,6.13
2022-10-17T22:43:42.313Z,6.82
2022-10-17T22:46:13.185Z,8.00
2022-10-17T22:48:40.403Z,7.45
2022-10-17T22:51:07.722Z,7.22
2022-10-17T22:53:35.355Z,7.05
2022-10-17T22:56:06.582Z,7.97
2022-10-17T22:58:34.818Z,7.28
2022-10-17T23:01:02.029Z,6.18
2022-10-17T23:03:30.862Z,4.95
2022-10-17T23:05:58.195Z,5.40
2022-10-17T23:08:26.109Z,5.80
2022-10-17T23:10:53.346Z,5.82
2022-10-17T23:13:21.490Z,5.30
2022-10-17T23:15:55.911Z,4.95
2022-10-17T23:18:24.530Z,4.70
2022-10-17T23:20:51.690Z,4.80
2022-10-17T23:23:19.545Z,5.30
2022-10-17T23:25:47.079Z,5.10
2022-10-17T23:28:14.061Z,4.50
2022-10-17T23:30:41.425Z,5.20
2022-10-17T23:33:10.695Z,4.57
2022-10-17T23:35:37.581Z,5.45
2022-10-17T23:38:04.719Z,5.20
2022-10-17T23:40:31.664Z,5.65
2022-10-17T23:42:58.586Z,4.93
2022-10-17T23:45:25.528Z,4.97
2022-10-17T23:47:52.406Z,5.32
2022-10-17T23:50:19.326Z,5.30
2022-10-17T23:52:46.257Z,5.63
2022-10-17T23:55:13.258Z,5.28
2022-10-17T23:57:40.138Z,5.18
